sensor_id;sensor_type;location;lat;lon;timestamp;P1;durP1;ratioP1;P2;durP2;ratioP2
6999;SDS011;3540;53.242;10.408;2022-11-15T00:00:20;38.03;;;24.40;;
6999;SDS011;3540;53.242;10.408;2022-11-15T00:02:46;36.30;;;24.00;;
6999;SDS011;3540;53.242;10.408;2022-11-15T00:05:12;37.73;;;24.73;;
6999;SDS011;3540;53.242;10.408;2022-11-15T00:07:37;35.57;;;23.83;;
6999;SDS011;3540;53.242;10.408;2022-11-15T00:10:03;33.77;;;22.90;;
6999;SDS011;3540;53.242;10.408;2022-11-15T00:12:29;35.37;;;24.17;;
6999;SDS011;3540;53.242;10.408;2022-11-15T00:14:54;36.43;;;24.43;;
6999;SDS011;3540;53.242;10.408;2022-11-15T00:17:20;38.93;;;23.80;;
6999;SDS011;3540;53.242;10.408;2022-11-15T00:19:46;34.00;;;23.37;;
6999;SDS011;3540;53.242;10.408;2022-11-15T00:22:11;35.17;;;22.93;;
6999;SDS011;3540;53.242;10.408;2022-11-15T00:24:37;34.50;;;22.90;;
6999;SDS011;3540;53.242;10.408;2022-11-15T00:27:03;36.60;;;23.07;;
6999;SDS011;3540;53.242;10.408;2022-11-15T00:29:28;36.60;;;24.00;;
6999;SDS011;3540;53.242;10.408;2022-11-15T00:31:54;33.77;;;22.53;;
6999;SDS011;3540;53.242;10.408;2022-11-15T00:34:19;32.67;;;23.60;;
6999;SDS011;3540;53.242;10.408;2022-11-15T00:36:45;33.20;;;23.23;;
6999;SDS011;3540;53.242;10.408;2022-11-15T00:39:11;36.30;;;22.97;;
6999;SDS011;3540;53.242;10.408;2022-11-15T00:41:36;33.53;;;22.37;;
6999;SDS011;3540;53.242;10.408;2022-11-15T00:44:02;33.20;;;22.83;;
6999;SDS011;3540;53.242;10.408;2022-11-15T00:46:28;32.43;;;21.70;;
6999;SDS011;3540;53.242;10.408;2022-11-15T00:48:53;31.43;;;21.40;;
6999;SDS011;3540;53.242;10.408;2022-11-15T00:51:19;33.43;;;22.33;;
6999;SDS011;3540;53.242;10.408;2022-11-15T00:53:44;31.23;;;22.20;;
6999;SDS011;3540;53.242;10.408;2022-11-15T00:56:10;30.80;;;22.03;;
6999;SDS011;3540;53.242;10.408;2022-11-15T00:58:36;32.37;;;21.30;;
6999;SDS011;3540;53.242;10.408;2022-11-15T01:01:05;34.10;;;21.67;;
6999;SDS011;3540;53.242;10.408;2022-11-15T01:03:35;32.97;;;22.43;;
6999;SDS011;3540;53.242;10.408;2022-11-15T01:06:01;37.67;;;23.63;;
6999;SDS011;3540;53.242;10.408;2022-11-15T01:08:27;35.27;;;22.97;;
6999;SDS011;3540;53.242;10.408;2022-11-15T01:10:53;38.90;;;23.83;;
6999;SDS011;3540;53.242;10.408;2022-11-15T01:13:18;34.90;;;22.73;;
6999;SDS011;3540;53.242;10.408;2022-11-15T01:15:44;33.20;;;22.20;;
6999;SDS011;3540;53.242;10.408;2022-11-15T01:18:09;36.40;;;23.70;;
6999;SDS011;3540;53.242;10.408;2022-11-15T01:20:41;37.37;;;22.97;;
6999;SDS011;3540;53.242;10.408;2022-11-15T01:23:08;35.93;;;23.30;;
6999;SDS011;3540;53.242;10.408;2022-11-15T01:25:33;36.60;;;23.90;;
6999;SDS011;3540;53.242;10.408;2022-11-15T01:27:59;32.93;;;23.00;;
6999;SDS011;3540;53.242;10.408;2022-11-15T01:30:25;32.93;;;22.80;;
6999;SDS011;3540;53.242;10.408;2022-11-15T01:32:50;35.40;;;23.27;;
6999;SDS011;3540;53.242;10.408;2022-11-15T01:35:16;38.67;;;23.50;;
6999;SDS011;3540;53.242;10.408;2022-11-15T01:37:42;35.43;;;23.67;;
6999;SDS011;3540;53.242;10.408;2022-11-15T01:40:07;33.97;;;22.70;;
6999;SDS011;3540;53.242;10.408;2022-11-15T01:42:33;34.80;;;23.20;;
6999;SDS011;3540;53.242;10.408;2022-11-15T01:44:59;35.10;;;23.07;;
6999;SDS011;3540;53.242;10.408;2022-11-15T01:47:29;38.93;;;23.53;;
6999;SDS011;3540;53.242;10.408;2022-11-15T01:49:59;33.77;;;20.77;;
6999;SDS011;3540;53.242;10.408;2022-11-15T01:52:31;28.73;;;20.77;;
6999;SDS011;3540;53.242;10.408;2022-11-15T01:55:01;33.10;;;20.93;;
6999;SDS011;3540;53.242;10.408;2022-11-15T01:57:33;33.53;;;22.20;;
6999;SDS011;3540;53.242;10.408;2022-11-15T01:59:59;30.70;;;21.37;;
6999;SDS011;3540;53.242;10.408;2022-11-15T02:02:28;34.73;;;22.17;;
6999;SDS011;3540;53.242;10.408;2022-11-15T02:04:53;31.97;;;21.77;;
6999;SDS011;3540;53.242;10.408;2022-11-15T02:07:19;31.97;;;20.93;;
6999;SDS011;3540;53.242;10.408;2022-11-15T02:09:47;36.20;;;21.50;;
6999;SDS011;3540;53.242;10.408;2022-11-15T02:12:15;31.87;;;21.43;;
6999;SDS011;3540;53.242;10.408;2022-11-15T02:14:46;32.77;;;21.77;;
6999;SDS011;3540;53.242;10.408;2022-11-15T02:34:42;33.33;;;21.30;;
6999;SDS011;3540;53.242;10.408;2022-11-15T02:37:30;33.40;;;20.50;;
6999;SDS011;3540;53.242;10.408;2022-11-15T02:43:36;34.57;;;21.80;;
6999;SDS011;3540;53.242;10.408;2022-11-15T02:46:34;35.67;;;22.57;;
6999;SDS011;3540;53.242;10.408;2022-11-15T02:49:20;32.43;;;21.83;;
6999;SDS011;3540;53.242;10.408;2022-11-15T02:51:48;34.43;;;21.97;;
6999;SDS011;3540;53.242;10.408;2022-11-15T02:54:23;34.07;;;22.03;;
6999;SDS011;3540;53.242;10.408;2022-11-15T02:56:54;35.20;;;22.10;;
6999;SDS011;3540;53.242;10.408;2022-11-15T03:04:51;35.17;;;22.47;;
6999;SDS011;3540;53.242;10.408;2022-11-15T03:07:30;32.73;;;21.80;;
6999;SDS011;3540;53.242;10.408;2022-11-15T03:10:12;36.43;;;21.83;;
6999;SDS011;3540;53.242;10.408;2022-11-15T03:12:51;33.10;;;20.70;;
6999;SDS011;3540;53.242;10.408;2022-11-15T03:21:04;29.60;;;19.77;;
6999;SDS011;3540;53.242;10.408;2022-11-15T03:23:33;36.23;;;21.80;;
6999;SDS011;3540;53.242;10.408;2022-11-15T03:26:01;32.97;;;21.73;;
6999;SDS011;3540;53.242;10.408;2022-11-15T03:28:35;30.93;;;20.33;;
6999;SDS011;3540;53.242;10.408;2022-11-15T03:31:05;34.80;;;20.73;;
6999;SDS011;3540;53.242;10.408;2022-11-15T03:33:53;33.17;;;20.53;;
6999;SDS011;3540;53.242;10.408;2022-11-15T03:36:22;32.13;;;19.23;;
6999;SDS011;3540;53.242;10.408;2022-11-15T03:38:49;34.37;;;20.57;;
6999;SDS011;3540;53.242;10.408;2022-11-15T03:41:24;31.80;;;20.13;;
6999;SDS011;3540;53.242;10.408;2022-11-15T03:44:10;32.97;;;20.40;;
6999;SDS011;3540;53.242;10.408;2022-11-15T03:46:42;34.53;;;20.67;;
6999;SDS011;3540;53.242;10.408;2022-11-15T03:49:17;29.47;;;19.43;;
6999;SDS011;3540;53.242;10.408;2022-11-15T03:51:49;28.93;;;19.47;;
6999;SDS011;3540;53.242;10.408;2022-11-15T03:54:15;35.30;;;20.80;;
6999;SDS011;3540;53.242;10.408;2022-11-15T03:56:41;34.53;;;21.20;;
6999;SDS011;3540;53.242;10.408;2022-11-15T03:59:06;29.17;;;19.87;;
6999;SDS011;3540;53.242;10.408;2022-11-15T04:01:32;31.17;;;20.07;;
6999;SDS011;3540;53.242;10.408;2022-11-15T04:03:57;36.13;;;20.30;;
6999;SDS011;3540;53.242;10.408;2022-11-15T04:06:23;31.23;;;20.70;;
6999;SDS011;3540;53.242;10.408;2022-11-15T04:08:49;34.33;;;21.93;;
6999;SDS011;3540;53.242;10.408;2022-11-15T04:11:14;31.13;;;18.90;;
6999;SDS011;3540;53.242;10.408;2022-11-15T04:13:40;29.00;;;18.73;;
6999;SDS011;3540;53.242;10.408;2022-11-15T04:16:06;30.13;;;19.77;;
6999;SDS011;3540;53.242;10.408;2022-11-15T04:18:31;29.73;;;19.53;;
6999;SDS011;3540;53.242;10.408;2022-11-15T04:20:57;29.23;;;19.50;;
6999;SDS011;3540;53.242;10.408;2022-11-15T04:23:41;31.57;;;18.70;;
6999;SDS011;3540;53.242;10.408;2022-11-15T04:26:32;30.77;;;18.13;;
6999;SDS011;3540;53.242;10.408;2022-11-15T04:28:58;27.83;;;19.00;;
6999;SDS011;3540;53.242;10.408;2022-11-15T04:31:42;30.03;;;18.33;;
6999;SDS011;3540;53.242;10.408;2022-11-15T04:34:08;30.23;;;19.33;;
6999;SDS011;3540;53.242;10.408;2022-11-15T04:36:34;27.33;;;18.23;;
6999;SDS011;3540;53.242;10.408;2022-11-15T04:39:18;24.80;;;16.83;;
6999;SDS011;3540;53.242;10.408;2022-11-15T04:41:43;26.90;;;18.37;;
6999;SDS011;3540;53.242;10.408;2022-11-15T04:44:09;31.90;;;18.40;;
6999;SDS011;3540;53.242;10.408;2022-11-15T04:46:35;27.97;;;18.57;;
6999;SDS011;3540;53.242;10.408;2022-11-15T04:49:00;31.77;;;19.17;;
6999;SDS011;3540;53.242;10.408;2022-11-15T04:51:26;27.60;;;18.80;;
6999;SDS011;3540;53.242;10.408;2022-11-15T04:53:52;29.60;;;19.10;;
6999;SDS011;3540;53.242;10.408;2022-11-15T04:56:18;30.77;;;18.13;;
6999;SDS011;3540;53.242;10.408;2022-11-15T04:58:43;28.67;;;18.50;;
6999;SDS011;3540;53.242;10.408;2022-11-15T05:01:10;27.47;;;18.20;;
6999;SDS011;3540;53.242;10.408;2022-11-15T05:03:38;26.23;;;18.07;;
6999;SDS011;3540;53.242;10.408;2022-11-15T05:06:23;28.13;;;18.50;;
6999;SDS011;3540;53.242;10.408;2022-11-15T05:08:49;30.20;;;18.90;;
6999;SDS011;3540;53.242;10.408;2022-11-15T05:11:14;27.87;;;17.83;;
6999;SDS011;3540;53.242;10.408;2022-11-15T05:13:40;29.03;;;18.93;;
6999;SDS011;3540;53.242;10.408;2022-11-15T05:16:05;28.77;;;17.87;;
6999;SDS011;3540;53.242;10.408;2022-11-15T05:18:31;28.20;;;18.43;;
6999;SDS011;3540;53.242;10.408;2022-11-15T05:21:02;29.03;;;18.20;;
6999;SDS011;3540;53.242;10.408;2022-11-15T05:23:29;29.17;;;18.53;;
6999;SDS011;3540;53.242;10.408;2022-11-15T05:25:58;29.07;;;18.70;;
6999;SDS011;3540;53.242;10.408;2022-11-15T05:28:28;29.57;;;18.90;;
6999;SDS011;3540;53.242;10.408;2022-11-15T05:30:59;26.80;;;17.73;;
6999;SDS011;3540;53.242;10.408;2022-11-15T05:33:29;29.83;;;19.53;;
6999;SDS011;3540;53.242;10.408;2022-11-15T05:35:57;27.13;;;18.00;;
6999;SDS011;3540;53.242;10.408;2022-11-15T05:38:29;25.87;;;17.70;;
6999;SDS011;3540;53.242;10.408;2022-11-15T05:40:55;29.53;;;18.53;;
6999;SDS011;3540;53.242;10.408;2022-11-15T05:43:21;27.83;;;18.83;;
6999;SDS011;3540;53.242;10.408;2022-11-15T05:45:47;30.80;;;18.83;;
6999;SDS011;3540;53.242;10.408;2022-11-15T05:48:13;28.40;;;18.27;;
6999;SDS011;3540;53.242;10.408;2022-11-15T05:50:41;29.30;;;18.87;;
6999;SDS011;3540;53.242;10.408;2022-11-15T05:53:10;28.10;;;18.07;;
6999;SDS011;3540;53.242;10.408;2022-11-15T05:55:38;28.57;;;18.90;;
6999;SDS011;3540;53.242;10.408;2022-11-15T05:58:04;30.60;;;19.87;;
6999;SDS011;3540;53.242;10.408;2022-11-15T06:00:30;31.07;;;18.70;;
6999;SDS011;3540;53.242;10.408;2022-11-15T06:02:56;29.33;;;19.23;;
6999;SDS011;3540;53.242;10.408;2022-11-15T06:05:21;28.70;;;19.03;;
6999;SDS011;3540;53.242;10.408;2022-11-15T06:07:47;27.87;;;18.80;;
6999;SDS011;3540;53.242;10.408;2022-11-15T06:10:13;29.70;;;19.17;;
6999;SDS011;3540;53.242;10.408;2022-11-15T06:12:38;28.50;;;18.57;;
6999;SDS011;3540;53.242;10.408;2022-11-15T06:15:04;29.10;;;18.93;;
6999;SDS011;3540;53.242;10.408;2022-11-15T06:17:30;29.23;;;17.93;;
6999;SDS011;3540;53.242;10.408;2022-11-15T06:19:56;31.60;;;18.70;;
6999;SDS011;3540;53.242;10.408;2022-11-15T06:22:21;31.40;;;18.17;;
6999;SDS011;3540;53.242;10.408;2022-11-15T06:24:47;27.37;;;18.40;;
6999;SDS011;3540;53.242;10.408;2022-11-15T06:27:13;27.57;;;18.30;;
6999;SDS011;3540;53.242;10.408;2022-11-15T06:29:39;26.23;;;17.23;;
6999;SDS011;3540;53.242;10.408;2022-11-15T06:32:04;32.33;;;19.03;;
6999;SDS011;3540;53.242;10.408;2022-11-15T06:34:30;30.47;;;19.23;;
6999;SDS011;3540;53.242;10.408;2022-11-15T06:36:56;24.70;;;17.63;;
6999;SDS011;3540;53.242;10.408;2022-11-15T06:39:21;27.90;;;18.23;;
6999;SDS011;3540;53.242;10.408;2022-11-15T06:41:47;26.23;;;18.77;;
6999;SDS011;3540;53.242;10.408;2022-11-15T06:44:13;26.57;;;18.20;;
6999;SDS011;3540;53.242;10.408;2022-11-15T06:46:38;26.57;;;17.40;;
6999;SDS011;3540;53.242;10.408;2022-11-15T06:49:04;24.47;;;17.20;;
6999;SDS011;3540;53.242;10.408;2022-11-15T06:51:29;25.90;;;17.47;;
6999;SDS011;3540;53.242;10.408;2022-11-15T06:53:55;26.80;;;17.13;;
6999;SDS011;3540;53.242;10.408;2022-11-15T06:56:21;25.33;;;16.83;;
6999;SDS011;3540;53.242;10.408;2022-11-15T06:58:46;26.23;;;16.57;;
6999;SDS011;3540;53.242;10.408;2022-11-15T07:01:12;25.77;;;16.83;;
6999;SDS011;3540;53.242;10.408;2022-11-15T07:03:39;23.67;;;16.03;;
6999;SDS011;3540;53.242;10.408;2022-11-15T07:06:07;26.20;;;17.40;;
6999;SDS011;3540;53.242;10.408;2022-11-15T07:08:33;27.30;;;16.13;;
6999;SDS011;3540;53.242;10.408;2022-11-15T07:11:00;24.80;;;17.17;;
6999;SDS011;3540;53.242;10.408;2022-11-15T07:13:27;24.27;;;17.07;;
6999;SDS011;3540;53.242;10.408;2022-11-15T07:15:54;24.40;;;16.93;;
6999;SDS011;3540;53.242;10.408;2022-11-15T07:18:20;23.93;;;16.77;;
6999;SDS011;3540;53.242;10.408;2022-11-15T07:20:46;24.00;;;15.73;;
6999;SDS011;3540;53.242;10.408;2022-11-15T07:23:12;20.47;;;15.77;;
6999;SDS011;3540;53.242;10.408;2022-11-15T07:25:37;23.23;;;16.37;;
6999;SDS011;3540;53.242;10.408;2022-11-15T07:28:03;22.97;;;16.37;;
6999;SDS011;3540;53.242;10.408;2022-11-15T07:30:29;24.17;;;15.93;;
6999;SDS011;3540;53.242;10.408;2022-11-15T07:32:58;23.37;;;15.17;;
6999;SDS011;3540;53.242;10.408;2022-11-15T07:35:25;22.33;;;15.90;;
6999;SDS011;3540;53.242;10.408;2022-11-15T07:37:56;23.60;;;14.73;;
6999;SDS011;3540;53.242;10.408;2022-11-15T07:40:24;20.73;;;14.90;;
6999;SDS011;3540;53.242;10.408;2022-11-15T07:42:50;20.10;;;14.80;;
6999;SDS011;3540;53.242;10.408;2022-11-15T07:45:20;22.03;;;15.70;;
6999;SDS011;3540;53.242;10.408;2022-11-15T07:47:51;21.67;;;14.10;;
6999;SDS011;3540;53.242;10.408;2022-11-15T07:50:17;19.67;;;14.13;;
6999;SDS011;3540;53.242;10.408;2022-11-15T07:52:43;22.30;;;13.97;;
6999;SDS011;3540;53.242;10.408;2022-11-15T07:55:09;19.63;;;13.90;;
6999;SDS011;3540;53.242;10.408;2022-11-15T07:57:35;19.40;;;14.03;;
6999;SDS011;3540;53.242;10.408;2022-11-15T08:00:01;17.77;;;13.57;;
6999;SDS011;3540;53.242;10.408;2022-11-15T08:02:27;17.83;;;13.70;;
6999;SDS011;3540;53.242;10.408;2022-11-15T08:04:53;20.27;;;13.00;;
6999;SDS011;3540;53.242;10.408;2022-11-15T08:07:19;18.70;;;13.53;;
6999;SDS011;3540;53.242;10.408;2022-11-15T08:09:44;18.17;;;13.13;;
6999;SDS011;3540;53.242;10.408;2022-11-15T08:12:10;20.90;;;12.70;;
6999;SDS011;3540;53.242;10.408;2022-11-15T08:14:35;21.40;;;12.97;;
6999;SDS011;3540;53.242;10.408;2022-11-15T08:17:01;16.93;;;12.80;;
6999;SDS011;3540;53.242;10.408;2022-11-15T08:19:27;17.10;;;12.53;;
6999;SDS011;3540;53.242;10.408;2022-11-15T08:21:52;19.67;;;13.13;;
6999;SDS011;3540;53.242;10.408;2022-11-15T08:24:18;23.80;;;13.43;;
6999;SDS011;3540;53.242;10.408;2022-11-15T08:26:45;17.03;;;12.53;;
6999;SDS011;3540;53.242;10.408;2022-11-15T08:29:11;15.90;;;12.43;;
6999;SDS011;3540;53.242;10.408;2022-11-15T08:31:36;19.23;;;12.20;;
6999;SDS011;3540;53.242;10.408;2022-11-15T08:34:02;19.40;;;12.47;;
6999;SDS011;3540;53.242;10.408;2022-11-15T08:36:29;16.77;;;12.63;;
6999;SDS011;3540;53.242;10.408;2022-11-15T08:38:54;16.43;;;12.10;;
6999;SDS011;3540;53.242;10.408;2022-11-15T08:41:25;17.03;;;12.10;;
6999;SDS011;3540;53.242;10.408;2022-11-15T08:43:53;18.30;;;12.33;;
6999;SDS011;3540;53.242;10.408;2022-11-15T08:46:18;15.50;;;11.90;;
6999;SDS011;3540;53.242;10.408;2022-11-15T08:48:44;17.07;;;12.07;;
6999;SDS011;3540;53.242;10.408;2022-11-15T08:51:10;16.63;;;12.30;;
6999;SDS011;3540;53.242;10.408;2022-11-15T08:53:35;15.37;;;11.73;;
6999;SDS011;3540;53.242;10.408;2022-11-15T08:56:01;18.43;;;11.93;;
6999;SDS011;3540;53.242;10.408;2022-11-15T08:58:27;15.80;;;11.53;;
6999;SDS011;3540;53.242;10.408;2022-11-15T09:00:53;15.40;;;11.57;;
6999;SDS011;3540;53.242;10.408;2022-11-15T09:03:19;18.37;;;12.50;;
6999;SDS011;3540;53.242;10.408;2022-11-15T09:05:44;15.80;;;11.53;;
6999;SDS011;3540;53.242;10.408;2022-11-15T09:08:10;18.50;;;12.30;;
6999;SDS011;3540;53.242;10.408;2022-11-15T09:10:37;17.73;;;11.90;;
6999;SDS011;3540;53.242;10.408;2022-11-15T09:13:03;17.90;;;12.47;;
6999;SDS011;3540;53.242;10.408;2022-11-15T09:15:29;16.07;;;11.90;;
6999;SDS011;3540;53.242;10.408;2022-11-15T09:17:57;15.90;;;11.67;;
6999;SDS011;3540;53.242;10.408;2022-11-15T09:20:23;15.33;;;12.37;;
6999;SDS011;3540;53.242;10.408;2022-11-15T09:22:49;18.07;;;11.50;;
6999;SDS011;3540;53.242;10.408;2022-11-15T09:25:15;16.90;;;11.47;;
6999;SDS011;3540;53.242;10.408;2022-11-15T09:27:40;15.43;;;11.63;;
6999;SDS011;3540;53.242;10.408;2022-11-15T09:30:06;17.10;;;12.13;;
6999;SDS011;3540;53.242;10.408;2022-11-15T09:32:32;16.10;;;12.13;;
6999;SDS011;3540;53.242;10.408;2022-11-15T09:34:58;15.37;;;11.23;;
6999;SDS011;3540;53.242;10.408;2022-11-15T09:37:23;16.67;;;11.43;;
6999;SDS011;3540;53.242;10.408;2022-11-15T09:39:49;17.10;;;10.97;;
6999;SDS011;3540;53.242;10.408;2022-11-15T09:42:25;19.37;;;11.20;;
6999;SDS011;3540;53.242;10.408;2022-11-15T09:45:15;15.00;;;11.17;;
6999;SDS011;3540;53.242;10.408;2022-11-15T09:50:44;14.33;;;9.97;;
6999;SDS011;3540;53.242;10.408;2022-11-15T09:56:03;14.47;;;9.37;;
6999;SDS011;3540;53.242;10.408;2022-11-15T10:01:36;14.73;;;9.53;;
6999;SDS011;3540;53.242;10.408;2022-11-15T10:04:10;14.33;;;9.03;;
6999;SDS011;3540;53.242;10.408;2022-11-15T10:06:37;13.23;;;9.17;;
6999;SDS011;3540;53.242;10.408;2022-11-15T10:11:39;10.47;;;8.13;;
6999;SDS011;3540;53.242;10.408;2022-11-15T10:14:15;13.57;;;9.17;;
6999;SDS011;3540;53.242;10.408;2022-11-15T10:17:00;13.07;;;8.40;;
6999;SDS011;3540;53.242;10.408;2022-11-15T10:22:40;12.63;;;9.07;;
6999;SDS011;3540;53.242;10.408;2022-11-15T10:27:38;12.17;;;7.50;;
6999;SDS011;3540;53.242;10.408;2022-11-15T10:30:11;12.13;;;8.50;;
6999;SDS011;3540;53.242;10.408;2022-11-15T10:32:40;10.90;;;8.10;;
6999;SDS011;3540;53.242;10.408;2022-11-15T10:38:06;12.03;;;7.63;;
6999;SDS011;3540;53.242;10.408;2022-11-15T10:40:36;8.90;;;7.20;;
6999;SDS011;3540;53.242;10.408;2022-11-15T10:45:35;8.17;;;6.83;;
6999;SDS011;3540;53.242;10.408;2022-11-15T10:50:37;9.50;;;7.67;;
6999;SDS011;3540;53.242;10.408;2022-11-15T10:53:03;13.60;;;7.67;;
6999;SDS011;3540;53.242;10.408;2022-11-15T10:55:36;9.37;;;7.70;;
6999;SDS011;3540;53.242;10.408;2022-11-15T10:58:06;11.27;;;6.67;;
6999;SDS011;3540;53.242;10.408;2022-11-15T11:00:45;10.27;;;6.63;;
6999;SDS011;3540;53.242;10.408;2022-11-15T11:03:26;11.93;;;8.97;;
6999;SDS011;3540;53.242;10.408;2022-11-15T11:06:16;8.80;;;6.87;;
6999;SDS011;3540;53.242;10.408;2022-11-15T11:11:20;9.37;;;6.67;;
6999;SDS011;3540;53.242;10.408;2022-11-15T11:13:46;8.10;;;6.23;;
6999;SDS011;3540;53.242;10.408;2022-11-15T11:21:17;9.73;;;6.50;;
6999;SDS011;3540;53.242;10.408;2022-11-15T11:23:52;8.50;;;6.60;;
6999;SDS011;3540;53.242;10.408;2022-11-15T11:29:05;11.40;;;6.17;;
6999;SDS011;3540;53.242;10.408;2022-11-15T11:34:38;9.67;;;6.80;;
6999;SDS011;3540;53.242;10.408;2022-11-15T11:37:29;10.03;;;6.70;;
6999;SDS011;3540;53.242;10.408;2022-11-15T11:48:14;9.37;;;6.00;;
6999;SDS011;3540;53.242;10.408;2022-11-15T11:50:57;8.47;;;5.57;;
6999;SDS011;3540;53.242;10.408;2022-11-15T11:58:52;8.77;;;6.17;;
6999;SDS011;3540;53.242;10.408;2022-11-15T12:01:28;6.40;;;5.33;;
6999;SDS011;3540;53.242;10.408;2022-11-15T12:04:05;8.57;;;5.50;;
6999;SDS011;3540;53.242;10.408;2022-11-15T12:07:07;7.77;;;5.37;;
6999;SDS011;3540;53.242;10.408;2022-11-15T12:09:44;8.37;;;5.00;;
6999;SDS011;3540;53.242;10.408;2022-11-15T12:12:30;6.67;;;4.67;;
6999;SDS011;3540;53.242;10.408;2022-11-15T12:15:02;8.23;;;5.60;;
6999;SDS011;3540;53.242;10.408;2022-11-15T12:17:38;6.27;;;5.20;;
6999;SDS011;3540;53.242;10.408;2022-11-15T12:22:44;10.17;;;4.90;;
6999;SDS011;3540;53.242;10.408;2022-11-15T12:28:14;8.20;;;5.10;;
6999;SDS011;3540;53.242;10.408;2022-11-15T12:30:57;7.03;;;5.40;;
6999;SDS011;3540;53.242;10.408;2022-11-15T12:36:09;9.57;;;5.67;;
6999;SDS011;3540;53.242;10.408;2022-11-15T12:38:56;32.27;;;19.23;;
6999;SDS011;3540;53.242;10.408;2022-11-15T12:41:24;18.23;;;10.97;;
6999;SDS011;3540;53.242;10.408;2022-11-15T12:43:54;8.30;;;6.37;;
6999;SDS011;3540;53.242;10.408;2022-11-15T12:52:07;21.97;;;13.77;;
6999;SDS011;3540;53.242;10.408;2022-11-15T13:02:31;12.90;;;9.13;;
6999;SDS011;3540;53.242;10.408;2022-11-15T13:17:54;16.60;;;11.33;;
6999;SDS011;3540;53.242;10.408;2022-11-15T13:20:28;19.83;;;12.87;;
6999;SDS011;3540;53.242;10.408;2022-11-15T13:28:02;27.93;;;13.13;;
6999;SDS011;3540;53.242;10.408;2022-11-15T13:30:29;15.07;;;10.07;;
6999;SDS011;3540;53.242;10.408;2022-11-15T13:32:57;13.53;;;8.53;;
6999;SDS011;3540;53.242;10.408;2022-11-15T13:35:32;10.80;;;6.07;;
6999;SDS011;3540;53.242;10.408;2022-11-15T13:38:04;11.57;;;5.80;;
6999;SDS011;3540;53.242;10.408;2022-11-15T13:40:34;16.23;;;9.90;;
6999;SDS011;3540;53.242;10.408;2022-11-15T13:45:45;9.40;;;8.00;;
6999;SDS011;3540;53.242;10.408;2022-11-15T13:48:34;10.00;;;7.70;;
6999;SDS011;3540;53.242;10.408;2022-11-15T13:51:01;13.83;;;10.63;;
6999;SDS011;3540;53.242;10.408;2022-11-15T13:53:31;14.53;;;12.57;;
6999;SDS011;3540;53.242;10.408;2022-11-15T13:55:58;17.50;;;13.00;;
6999;SDS011;3540;53.242;10.408;2022-11-15T13:58:24;9.47;;;6.83;;
6999;SDS011;3540;53.242;10.408;2022-11-15T14:00:58;7.73;;;5.73;;
6999;SDS011;3540;53.242;10.408;2022-11-15T14:03:38;10.00;;;7.57;;
6999;SDS011;3540;53.242;10.408;2022-11-15T14:06:16;11.10;;;7.57;;
6999;SDS011;3540;53.242;10.408;2022-11-15T14:11:31;12.23;;;6.43;;
6999;SDS011;3540;53.242;10.408;2022-11-15T14:14:19;24.03;;;15.40;;
6999;SDS011;3540;53.242;10.408;2022-11-15T14:16:45;32.60;;;20.50;;
6999;SDS011;3540;53.242;10.408;2022-11-15T14:19:39;12.30;;;8.47;;
6999;SDS011;3540;53.242;10.408;2022-11-15T14:22:37;10.07;;;6.20;;
6999;SDS011;3540;53.242;10.408;2022-11-15T14:25:07;6.80;;;5.40;;
6999;SDS011;3540;53.242;10.408;2022-11-15T14:28:07;8.50;;;5.47;;
6999;SDS011;3540;53.242;10.408;2022-11-15T14:30:51;8.00;;;6.00;;
6999;SDS011;3540;53.242;10.408;2022-11-15T14:33:31;11.37;;;7.13;;
6999;SDS011;3540;53.242;10.408;2022-11-15T14:38:31;9.63;;;6.63;;
6999;SDS011;3540;53.242;10.408;2022-11-15T14:40:57;7.30;;;6.23;;
6999;SDS011;3540;53.242;10.408;2022-11-15T14:43:23;11.10;;;6.30;;
6999;SDS011;3540;53.242;10.408;2022-11-15T14:45:49;8.93;;;6.50;;
6999;SDS011;3540;53.242;10.408;2022-11-15T14:48:14;8.70;;;6.43;;
6999;SDS011;3540;53.242;10.408;2022-11-15T14:50:40;9.73;;;5.73;;
6999;SDS011;3540;53.242;10.408;2022-11-15T14:53:06;7.87;;;5.50;;
6999;SDS011;3540;53.242;10.408;2022-11-15T14:55:36;10.60;;;5.73;;
6999;SDS011;3540;53.242;10.408;2022-11-15T14:58:02;7.63;;;5.40;;
6999;SDS011;3540;53.242;10.408;2022-11-15T15:00:32;9.27;;;5.93;;
6999;SDS011;3540;53.242;10.408;2022-11-15T15:02:58;11.80;;;7.30;;
6999;SDS011;3540;53.242;10.408;2022-11-15T15:08:08;8.73;;;6.03;;
6999;SDS011;3540;53.242;10.408;2022-11-15T15:10:36;8.43;;;6.03;;
6999;SDS011;3540;53.242;10.408;2022-11-15T15:13:03;7.47;;;5.60;;
6999;SDS011;3540;53.242;10.408;2022-11-15T15:15:33;9.17;;;5.93;;
6999;SDS011;3540;53.242;10.408;2022-11-15T15:18:02;6.90;;;5.27;;
6999;SDS011;3540;53.242;10.408;2022-11-15T15:20:29;10.47;;;6.60;;
6999;SDS011;3540;53.242;10.408;2022-11-15T15:22:56;10.83;;;6.40;;
6999;SDS011;3540;53.242;10.408;2022-11-15T15:25:32;9.30;;;6.00;;
6999;SDS011;3540;53.242;10.408;2022-11-15T15:27:59;9.03;;;5.97;;
6999;SDS011;3540;53.242;10.408;2022-11-15T15:30:27;9.90;;;6.73;;
6999;SDS011;3540;53.242;10.408;2022-11-15T15:32:53;10.20;;;6.57;;
6999;SDS011;3540;53.242;10.408;2022-11-15T15:35:19;12.60;;;7.07;;
6999;SDS011;3540;53.242;10.408;2022-11-15T15:37:46;11.03;;;6.73;;
6999;SDS011;3540;53.242;10.408;2022-11-15T15:40:15;8.73;;;6.47;;
6999;SDS011;3540;53.242;10.408;2022-11-15T15:42:46;11.37;;;6.60;;
6999;SDS011;3540;53.242;10.408;2022-11-15T15:45:12;10.17;;;7.07;;
6999;SDS011;3540;53.242;10.408;2022-11-15T15:47:38;12.07;;;8.07;;
6999;SDS011;3540;53.242;10.408;2022-11-15T15:50:12;8.43;;;6.10;;
6999;SDS011;3540;53.242;10.408;2022-11-15T15:52:44;9.37;;;6.40;;
6999;SDS011;3540;53.242;10.408;2022-11-15T15:55:09;9.17;;;6.60;;
6999;SDS011;3540;53.242;10.408;2022-11-15T15:57:35;10.63;;;6.50;;
6999;SDS011;3540;53.242;10.408;2022-11-15T16:00:02;7.07;;;5.90;;
6999;SDS011;3540;53.242;10.408;2022-11-15T16:02:29;9.53;;;6.97;;
6999;SDS011;3540;53.242;10.408;2022-11-15T16:04:54;8.37;;;6.57;;
6999;SDS011;3540;53.242;10.408;2022-11-15T16:07:22;14.43;;;8.37;;
6999;SDS011;3540;53.242;10.408;2022-11-15T16:09:49;10.10;;;7.60;;
6999;SDS011;3540;53.242;10.408;2022-11-15T16:14:58;12.73;;;6.93;;
6999;SDS011;3540;53.242;10.408;2022-11-15T16:17:25;8.33;;;5.87;;
6999;SDS011;3540;53.242;10.408;2022-11-15T16:19:53;9.93;;;6.50;;
6999;SDS011;3540;53.242;10.408;2022-11-15T16:22:19;10.03;;;6.80;;
6999;SDS011;3540;53.242;10.408;2022-11-15T16:24:45;9.90;;;7.27;;
6999;SDS011;3540;53.242;10.408;2022-11-15T16:27:17;9.37;;;6.83;;
6999;SDS011;3540;53.242;10.408;2022-11-15T16:29:44;9.43;;;6.53;;
6999;SDS011;3540;53.242;10.408;2022-11-15T16:32:11;9.23;;;6.80;;
6999;SDS011;3540;53.242;10.408;2022-11-15T16:34:37;11.50;;;7.40;;
6999;SDS011;3540;53.242;10.408;2022-11-15T16:37:03;13.07;;;9.67;;
6999;SDS011;3540;53.242;10.408;2022-11-15T16:39:29;13.83;;;10.23;;
6999;SDS011;3540;53.242;10.408;2022-11-15T16:41:56;10.03;;;7.53;;
6999;SDS011;3540;53.242;10.408;2022-11-15T16:44:23;11.47;;;7.90;;
6999;SDS011;3540;53.242;10.408;2022-11-15T16:46:49;17.77;;;11.07;;
6999;SDS011;3540;53.242;10.408;2022-11-15T16:49:16;13.27;;;8.90;;
6999;SDS011;3540;53.242;10.408;2022-11-15T16:51:46;12.93;;;8.90;;
6999;SDS011;3540;53.242;10.408;2022-11-15T16:54:13;14.07;;;9.50;;
6999;SDS011;3540;53.242;10.408;2022-11-15T16:56:40;16.40;;;9.47;;
6999;SDS011;3540;53.242;10.408;2022-11-15T16:59:06;11.70;;;8.53;;
6999;SDS011;3540;53.242;10.408;2022-11-15T17:01:36;21.20;;;16.47;;
6999;SDS011;3540;53.242;10.408;2022-11-15T17:04:10;16.80;;;12.03;;
6999;SDS011;3540;53.242;10.408;2022-11-15T17:06:41;13.67;;;10.00;;
6999;SDS011;3540;53.242;10.408;2022-11-15T17:09:18;14.83;;;9.77;;